LIBR/BDS METAR and TAF weather

Enter ICAO airport designator
Station Type Date Time Source
LIBR METAR 2020/01/27 13:50 UTC NOAA

LIBR 271350Z 30015KT CAVOK 13/08 Q1018


Station Type Date Time Source
LIBR Decoded METAR 2020/01/27 13:50 UTC NOAA

Brindisi, Italy (LIBR) 40-39N 017-57E 10M
Jan 27, 2020 - 08:50 AM EST / 2020.01.27 1350 UTC
Wind: from the WNW (300 degrees) at 17 MPH (15 KT):0
Visibility: greater than 7 mile(s):0
Temperature: 55 F (13 C)
Dew Point: 46 F (8 C)
Relative Humidity: 71%
Pressure (altimeter): 30.06 in. Hg (1018 hPa)
ob: LIBR 271350Z 30015KT CAVOK 13/08 Q1018
cycle: 14

Station Type Date Time Source
LIBR TAF 2020/01/27 12:21 UTC NOAA

TAF LIBR 271100Z 2712/2812 30014KT 9999 SCT030

Example: see airport list